aviador You're here:

LYVR Decoded Metar

VRSAC in SERBIA
Report Time2018-04-24 14:00:00
UTC Time2018-04-24 14:21:55
Flight Rules vfr VFR
WindVRB at 13 kt
Visibility9999 m
Phenomena:N/A
Clouds:Few 033 Hf
Expected CloudBase > 4,000 ft AGL from Temp-Dew spread
CeilingNone
Temp24°C (ISA +10)
Dew Point14°C (54% RH)
AAT20.6°C
QNH1015 hPa
Density Alt1,535 ft
Elevation279 ft
Report Wrong Elevation
Raw Report
METAR LYVR 241400Z VRB13KT 9999 FEW033 24/14 Q1015 NOSIG=

Extra information for LYVR:More info

Metar Taf Metar & Taf Last 4 Metars F.Rules Stats Wind Profile Meteogram Temp Stats Airport Information Weather charts Add Link Nearby VenuesMetar ALERT Operation Metar Decoded Social comments